createdAt,value
2018-07-05T00:00:41.740Z,17.59
2018-07-05T00:03:27.915Z,17.52
2018-07-05T00:06:14.017Z,17.47
2018-07-05T00:09:00.111Z,17.44
2018-07-05T00:11:46.171Z,17.37
2018-07-05T00:14:32.855Z,17.26
2018-07-05T00:17:19.173Z,17.37
2018-07-05T00:20:05.469Z,17.21
2018-07-05T00:22:45.700Z,17.24
2018-07-05T00:25:31.848Z,17.31
2018-07-05T00:28:18.024Z,17.33
2018-07-05T00:31:04.236Z,17.31
2018-07-05T00:33:50.878Z,17.31
2018-07-05T00:36:37.256Z,17.24
2018-07-05T00:39:23.622Z,17.21
2018-07-05T00:42:09.857Z,17.19
2018-07-05T00:44:56.221Z,17.05
2018-07-05T00:47:42.461Z,17.10
2018-07-05T00:50:29.207Z,17.02
2018-07-05T00:53:15.457Z,17.04
2018-07-05T00:56:01.705Z,17.01
2018-07-05T00:58:47.949Z,17.03
2018-07-05T01:01:34.245Z,17.02
2018-07-05T01:04:20.454Z,16.82
2018-07-05T01:07:06.561Z,16.84
2018-07-05T01:09:53.075Z,16.87
2018-07-05T01:12:39.306Z,16.89
2018-07-05T01:15:25.543Z,16.84
2018-07-05T01:18:11.619Z,16.85
2018-07-05T01:20:58.337Z,16.80
2018-07-05T01:23:44.605Z,16.77
2018-07-05T01:26:31.036Z,16.74
2018-07-05T01:29:17.173Z,16.80
2018-07-05T01:32:03.344Z,16.81
2018-07-05T01:34:49.468Z,16.69
2018-07-05T01:37:35.781Z,16.62
2018-07-05T01:40:22.061Z,16.52
2018-07-05T01:43:08.253Z,16.51
2018-07-05T01:45:54.401Z,16.58
2018-07-05T01:48:34.705Z,16.68
2018-07-05T01:51:20.844Z,16.56
2018-07-05T01:54:06.996Z,16.57
2018-07-05T01:56:53.203Z,16.58
2018-07-05T01:59:39.330Z,16.58
2018-07-05T02:02:25.557Z,16.59
2018-07-05T02:05:12.156Z,16.62
2018-07-05T02:07:58.580Z,16.64
2018-07-05T02:10:44.818Z,16.49
2018-07-05T02:13:31.266Z,16.48
2018-07-05T02:16:17.441Z,16.49
2018-07-05T02:19:03.610Z,16.46
2018-07-05T02:21:50.313Z,16.37
2018-07-05T02:24:36.667Z,16.35
2018-07-05T02:27:23.029Z,16.44
2018-07-05T02:30:09.426Z,16.48
2018-07-05T02:32:55.763Z,16.32
2018-07-05T02:35:41.979Z,16.35
2018-07-05T02:38:28.152Z,16.37
2018-07-05T02:41:14.223Z,16.39
2018-07-05T02:44:00.395Z,16.41
2018-07-05T02:46:40.556Z,16.34
2018-07-05T02:49:26.799Z,16.30
2018-07-05T02:52:13.047Z,16.36
2018-07-05T02:54:59.363Z,16.28
2018-07-05T02:57:45.674Z,16.26
2018-07-05T03:00:31.980Z,16.19
2018-07-05T03:03:18.202Z,16.21
2018-07-05T03:06:05.176Z,16.24
2018-07-05T03:08:51.349Z,16.25
2018-07-05T03:11:37.633Z,16.14
2018-07-05T03:14:24.004Z,16.15
2018-07-05T03:17:10.211Z,16.18
2018-07-05T03:19:56.429Z,16.22
2018-07-05T03:22:42.639Z,16.23
2018-07-05T03:25:28.837Z,16.27
2018-07-05T03:28:15.051Z,16.28
2018-07-05T03:31:01.156Z,16.31
2018-07-05T03:33:41.487Z,16.31
2018-07-05T03:36:27.987Z,16.32
2018-07-05T03:39:14.833Z,16.31
2018-07-05T03:42:00.899Z,16.30
2018-07-05T03:44:47.226Z,16.25
2018-07-05T03:47:27.493Z,16.27
2018-07-05T03:50:13.785Z,16.27
2018-07-05T03:52:54.099Z,16.29
2018-07-05T03:55:40.846Z,16.32
2018-07-05T03:58:27.093Z,16.32
2018-07-05T04:01:13.405Z,16.32
2018-07-05T04:03:59.733Z,16.36
2018-07-05T04:06:46.476Z,16.40
2018-07-05T04:09:32.657Z,16.43
2018-07-05T04:12:18.814Z,16.44
2018-07-05T04:15:04.966Z,16.46
2018-07-05T04:17:45.172Z,16.49
2018-07-05T04:20:31.464Z,16.50
2018-07-05T04:23:17.726Z,16.51
2018-07-05T04:26:03.871Z,16.54
2018-07-05T04:28:51.173Z,16.56
2018-07-05T04:31:37.533Z,16.59
2018-07-05T04:34:23.704Z,16.62
2018-07-05T04:37:09.784Z,16.65
2018-07-05T04:39:55.944Z,16.66
2018-07-05T04:42:42.137Z,16.69
2018-07-05T04:45:28.303Z,16.72
2018-07-05T04:48:14.477Z,16.74
2018-07-05T04:51:00.699Z,16.75
2018-07-05T04:53:46.937Z,16.68
2018-07-05T04:56:33.212Z,16.71
2018-07-05T04:59:19.375Z,16.77
2018-07-05T05:02:05.525Z,16.78
2018-07-05T05:04:51.752Z,16.77
2018-07-05T05:07:38.107Z,16.79
2018-07-05T05:10:24.387Z,16.78
2018-07-05T05:13:10.669Z,16.79
2018-07-05T05:15:57.489Z,16.81
2018-07-05T05:18:43.784Z,16.83
2018-07-05T05:21:30.041Z,16.83
2018-07-05T05:24:10.250Z,16.83
2018-07-05T05:26:56.495Z,16.84
2018-07-05T05:29:42.652Z,16.84
2018-07-05T05:32:28.792Z,16.82
2018-07-05T05:35:15.390Z,16.86
2018-07-05T05:38:01.584Z,16.87
2018-07-05T05:40:47.836Z,16.88
2018-07-05T05:43:33.936Z,16.89
2018-07-05T05:46:20.122Z,16.92
2018-07-05T05:49:06.373Z,16.94
2018-07-05T05:51:52.609Z,16.91
2018-07-05T05:54:39.000Z,16.93
2018-07-05T05:57:25.312Z,16.98
2018-07-05T06:00:12.559Z,17.04
2018-07-05T06:02:58.933Z,17.09
2018-07-05T06:05:44.950Z,17.15
2018-07-05T06:08:31.290Z,17.19
2018-07-05T06:11:17.680Z,17.21
2018-07-05T06:14:04.054Z,17.23
2018-07-05T06:16:50.231Z,17.22
2018-07-05T06:19:36.388Z,17.22
2018-07-05T06:22:22.583Z,17.20
2018-07-05T06:25:08.747Z,17.23
2018-07-05T06:27:54.794Z,17.27
2018-07-05T06:30:35.013Z,17.31
2018-07-05T06:33:21.142Z,17.32
2018-07-05T06:36:07.313Z,17.36
2018-07-05T06:38:53.542Z,17.43
2018-07-05T06:41:39.716Z,17.48
2018-07-05T06:44:26.022Z,17.45
2018-07-05T06:47:12.226Z,17.50
2018-07-05T06:49:58.476Z,17.50
2018-07-05T06:52:44.625Z,17.49
2018-07-05T06:55:30.901Z,17.47
2018-07-05T06:58:17.045Z,17.50
2018-07-05T07:01:03.268Z,17.50
2018-07-05T07:03:49.574Z,17.53
2018-07-05T07:06:35.756Z,17.56
2018-07-05T07:09:21.818Z,17.60
2018-07-05T07:12:08.063Z,17.65
2018-07-05T07:14:54.400Z,17.70
2018-07-05T07:17:40.502Z,17.69
2018-07-05T07:20:26.834Z,17.75
2018-07-05T07:23:12.884Z,17.79
2018-07-05T07:25:59.059Z,17.83
2018-07-05T07:28:45.129Z,17.85
2018-07-05T07:31:31.208Z,17.88
2018-07-05T07:34:11.340Z,17.92
2018-07-05T07:36:57.460Z,17.93
2018-07-05T07:39:43.498Z,17.97
2018-07-05T07:42:11.249Z,18.00
2018-07-05T07:44:38.981Z,18.03
2018-07-05T07:47:06.768Z,18.08
2018-07-05T07:49:34.513Z,18.13
2018-07-05T07:52:02.258Z,18.16
2018-07-05T07:54:30.032Z,18.19
2018-07-05T07:56:57.772Z,18.20
2018-07-05T07:59:25.590Z,18.21
2018-07-05T08:01:53.334Z,18.19
2018-07-05T08:04:21.105Z,18.25
2018-07-05T08:06:48.881Z,18.28
2018-07-05T08:09:16.626Z,18.30
2018-07-05T08:11:44.409Z,18.32
2018-07-05T08:14:12.171Z,18.34
2018-07-05T08:16:39.911Z,18.37
2018-07-05T08:19:07.677Z,18.39
2018-07-05T08:21:35.457Z,18.42
2018-07-05T08:24:03.259Z,18.46
2018-07-05T08:26:31.022Z,18.50
2018-07-05T08:28:58.767Z,18.54
2018-07-05T08:31:26.600Z,18.59
2018-07-05T08:33:54.291Z,18.67
2018-07-05T08:36:22.070Z,18.76
2018-07-05T08:38:49.824Z,18.78
2018-07-05T08:41:17.557Z,18.73
2018-07-05T08:43:45.318Z,18.83
2018-07-05T08:46:13.100Z,18.90
2018-07-05T08:48:40.910Z,18.93
2018-07-05T08:51:08.661Z,18.99
2018-07-05T08:53:36.409Z,19.04
2018-07-05T08:56:04.190Z,19.11
2018-07-05T08:58:31.953Z,19.19
2018-07-05T09:00:59.696Z,19.26
2018-07-05T09:03:27.432Z,19.34
2018-07-05T09:05:55.175Z,19.38
2018-07-05T09:08:22.938Z,19.43
2018-07-05T09:10:50.699Z,19.48
2018-07-05T09:13:18.479Z,19.54
2018-07-05T09:15:46.244Z,19.59
2018-07-05T09:18:14.035Z,19.62
2018-07-05T09:20:41.814Z,19.62
2018-07-05T09:23:09.607Z,19.67
2018-07-05T09:25:37.362Z,19.68
2018-07-05T09:28:05.097Z,19.70
2018-07-05T09:30:32.861Z,19.74
2018-07-05T09:33:00.621Z,19.71
2018-07-05T09:35:28.497Z,19.75
2018-07-05T09:37:56.289Z,19.77
2018-07-05T09:40:24.076Z,19.79
2018-07-05T09:42:51.840Z,19.84
2018-07-05T09:45:19.640Z,19.86
2018-07-05T09:47:47.509Z,19.86
2018-07-05T09:50:15.317Z,19.83
2018-07-05T09:52:43.157Z,19.86
2018-07-05T09:55:10.903Z,19.95
2018-07-05T09:57:38.688Z,19.96
2018-07-05T10:00:06.491Z,19.99
2018-07-05T10:02:34.257Z,20.05
2018-07-05T10:05:02.007Z,20.06
2018-07-05T10:07:29.753Z,20.09
2018-07-05T10:09:57.531Z,20.08
2018-07-05T10:12:25.281Z,20.13
2018-07-05T10:14:53.055Z,20.15
2018-07-05T10:17:20.888Z,20.17
2018-07-05T10:19:48.994Z,20.19
2018-07-05T10:22:16.730Z,20.23
2018-07-05T10:24:44.486Z,20.24
2018-07-05T10:27:12.746Z,20.24
2018-07-05T10:29:58.817Z,20.15
2018-07-05T10:32:45.090Z,20.21
2018-07-05T10:35:12.844Z,20.21
2018-07-05T10:37:40.642Z,20.17
2018-07-05T10:40:26.847Z,20.16
2018-07-05T10:43:13.210Z,20.19
2018-07-05T10:45:59.975Z,20.25
2018-07-05T10:48:46.235Z,20.20
2018-07-05T10:51:32.527Z,20.25
2018-07-05T10:54:18.990Z,20.26
2018-07-05T10:56:59.265Z,20.31
2018-07-05T10:59:45.531Z,20.36
2018-07-05T11:02:31.730Z,20.35
2018-07-05T11:05:17.892Z,20.42
2018-07-05T11:08:03.973Z,20.44
2018-07-05T11:10:50.190Z,20.43
2018-07-05T11:13:36.291Z,20.51
2018-07-05T11:16:22.456Z,20.41
2018-07-05T11:19:08.590Z,20.39
2018-07-05T11:21:55.312Z,20.49
2018-07-05T11:24:41.499Z,20.52
2018-07-05T11:27:27.733Z,20.48
2018-07-05T11:30:13.856Z,20.49
2018-07-05T11:33:00.079Z,20.48
2018-07-05T11:35:46.280Z,20.49
2018-07-05T11:38:32.472Z,20.51
2018-07-05T11:41:18.697Z,20.65
2018-07-05T11:44:05.388Z,20.72
2018-07-05T11:46:51.580Z,20.71
2018-07-05T11:49:31.760Z,20.73
2018-07-05T11:52:18.084Z,20.84
2018-07-05T11:55:04.268Z,20.86
2018-07-05T11:57:50.440Z,20.92
2018-07-05T12:00:36.599Z,20.92
2018-07-05T12:03:22.775Z,21.02
2018-07-05T12:06:08.959Z,21.08
2018-07-05T12:08:55.125Z,21.06
2018-07-05T12:11:41.280Z,21.07
2018-07-05T12:14:27.449Z,21.08
2018-07-05T12:17:13.626Z,21.14
2018-07-05T12:19:59.846Z,21.03
2018-07-05T12:22:46.035Z,21.19
2018-07-05T12:25:32.202Z,21.18
2018-07-05T12:28:18.317Z,21.24
2018-07-05T12:31:04.552Z,21.28
2018-07-05T12:33:44.795Z,21.21
2018-07-05T12:36:31.180Z,21.33
2018-07-05T12:39:17.393Z,21.40
2018-07-05T12:42:03.472Z,21.37
2018-07-05T12:44:49.638Z,21.25
2018-07-05T12:47:35.641Z,21.28
2018-07-05T12:50:21.913Z,21.30
2018-07-05T12:53:08.220Z,21.38
2018-07-05T12:55:54.597Z,21.39
2018-07-05T12:58:40.977Z,21.53
2018-07-05T13:01:27.336Z,21.59
2018-07-05T13:04:13.449Z,21.68
2018-07-05T13:06:59.571Z,21.63
2018-07-05T13:09:45.848Z,21.62
2018-07-05T13:12:31.976Z,21.76
2018-07-05T13:15:18.218Z,21.91
2018-07-05T13:18:04.432Z,21.95
2018-07-05T13:20:50.700Z,21.92
2018-07-05T13:23:37.033Z,22.01
2018-07-05T13:26:23.338Z,22.04
2018-07-05T13:29:09.625Z,22.13
2018-07-05T13:31:55.775Z,22.12
2018-07-05T13:34:41.921Z,22.10
2018-07-05T13:37:28.065Z,22.28
2018-07-05T13:40:14.305Z,22.39
2018-07-05T13:43:00.565Z,22.49
2018-07-05T13:45:46.793Z,22.59
2018-07-05T13:48:33.166Z,22.66
2018-07-05T13:51:19.453Z,22.61
2018-07-05T13:54:05.728Z,22.64
2018-07-05T13:56:51.959Z,22.59
2018-07-05T13:59:38.109Z,22.50
2018-07-05T14:02:24.295Z,22.56
2018-07-05T14:05:10.436Z,22.51
2018-07-05T14:07:56.624Z,22.42
2018-07-05T14:10:42.811Z,22.32
2018-07-05T14:13:29.103Z,22.30
2018-07-05T14:16:15.111Z,22.31
2018-07-05T14:19:01.238Z,22.23
2018-07-05T14:21:47.488Z,22.27
2018-07-05T14:24:33.716Z,22.23
2018-07-05T14:27:19.767Z,22.27
2018-07-05T14:30:05.899Z,22.31
2018-07-05T14:32:52.446Z,22.21
2018-07-05T14:35:38.559Z,22.19
2018-07-05T14:38:18.789Z,22.20
2018-07-05T14:41:04.843Z,22.23
2018-07-05T14:43:50.975Z,22.21
2018-07-05T14:46:37.592Z,22.14
2018-07-05T14:49:23.785Z,22.14
2018-07-05T14:52:10.056Z,22.15
2018-07-05T14:54:56.316Z,22.13
2018-07-05T14:57:42.505Z,22.07
2018-07-05T15:00:28.728Z,22.01
2018-07-05T15:03:14.847Z,21.96
2018-07-05T15:06:01.068Z,21.97
2018-07-05T15:08:47.257Z,21.89
2018-07-05T15:11:33.452Z,21.79
2018-07-05T15:14:19.798Z,21.77
2018-07-05T15:17:00.005Z,21.76
2018-07-05T15:19:46.237Z,21.76
2018-07-05T15:22:32.310Z,21.77
2018-07-05T15:25:18.371Z,21.81
2018-07-05T15:28:04.494Z,21.77
2018-07-05T15:30:50.784Z,21.79
2018-07-05T15:33:36.920Z,21.81
2018-07-05T15:36:23.148Z,21.85
2018-07-05T15:39:09.359Z,21.85
2018-07-05T15:41:55.568Z,21.86
2018-07-05T15:44:41.800Z,21.91
2018-07-05T15:47:27.895Z,21.92
2018-07-05T15:50:14.162Z,21.97
2018-07-05T15:53:00.528Z,22.00
2018-07-05T15:55:46.827Z,22.04
2018-07-05T15:58:33.202Z,21.99
2018-07-05T16:01:19.775Z,22.02
2018-07-05T16:04:06.039Z,22.09
2018-07-05T16:06:52.283Z,22.09
2018-07-05T16:09:41.732Z,22.13
2018-07-05T16:12:28.081Z,22.15
2018-07-05T16:15:14.300Z,22.16
2018-07-05T16:18:00.385Z,22.10
2018-07-05T16:20:46.658Z,22.07
2018-07-05T16:23:32.906Z,22.12
2018-07-05T16:26:13.105Z,22.10
2018-07-05T16:28:59.213Z,22.12
2018-07-05T16:31:45.290Z,22.13
2018-07-05T16:34:31.410Z,22.12
2018-07-05T16:37:17.602Z,22.16
2018-07-05T16:40:03.827Z,22.22
2018-07-05T16:42:50.026Z,22.27
2018-07-05T16:45:36.161Z,22.30
2018-07-05T16:48:22.401Z,22.29
2018-07-05T16:51:08.501Z,22.32
2018-07-05T16:53:54.622Z,22.32
2018-07-05T16:56:41.302Z,22.30
2018-07-05T16:59:27.448Z,22.30
2018-07-05T17:02:13.675Z,22.31
2018-07-05T17:04:59.842Z,22.33
2018-07-05T17:07:46.094Z,22.32
2018-07-05T17:10:32.106Z,22.31
2018-07-05T17:13:18.326Z,22.33
2018-07-05T17:15:58.568Z,22.31
2018-07-05T17:18:44.835Z,22.29
2018-07-05T17:21:31.041Z,22.27
2018-07-05T17:24:17.716Z,22.25
2018-07-05T17:27:03.851Z,22.25
2018-07-05T17:29:50.071Z,22.23
2018-07-05T17:32:36.406Z,22.22
2018-07-05T17:35:22.605Z,22.22
2018-07-05T17:38:08.815Z,22.22
2018-07-05T17:40:55.020Z,22.20
2018-07-05T17:43:41.171Z,22.18
2018-07-05T17:46:27.355Z,22.13
2018-07-05T17:49:13.555Z,22.13
2018-07-05T17:51:59.645Z,22.14
2018-07-05T17:54:45.736Z,22.14
2018-07-05T17:57:31.882Z,22.12
2018-07-05T18:00:18.163Z,22.13
2018-07-05T18:03:04.433Z,22.08
2018-07-05T18:05:50.767Z,22.04
2018-07-05T18:08:36.964Z,22.04
2018-07-05T18:11:23.112Z,22.00
2018-07-05T18:14:09.230Z,21.97
2018-07-05T18:16:55.488Z,21.95
2018-07-05T18:19:41.769Z,21.90
2018-07-05T18:22:28.029Z,21.87
2018-07-05T18:25:15.005Z,21.77
2018-07-05T18:28:01.360Z,21.69
2018-07-05T18:30:47.994Z,21.63
2018-07-05T18:33:35.101Z,21.57
2018-07-05T18:36:21.295Z,21.47
2018-07-05T18:39:07.479Z,21.41
2018-07-05T18:41:53.702Z,21.31
2018-07-05T18:44:39.901Z,21.21
2018-07-05T18:47:26.067Z,21.20
2018-07-05T18:50:12.299Z,21.15
2018-07-05T18:52:58.506Z,21.09
2018-07-05T18:55:44.786Z,21.03
2018-07-05T18:58:30.951Z,20.99
2018-07-05T19:01:17.113Z,20.97
2018-07-05T19:04:03.306Z,20.91
2018-07-05T19:06:49.381Z,20.83
2018-07-05T19:09:29.462Z,20.80
2018-07-05T19:12:15.729Z,20.76
2018-07-05T19:15:01.902Z,20.72
2018-07-05T19:17:48.187Z,20.67
2018-07-05T19:20:34.433Z,20.67
2018-07-05T19:23:20.542Z,20.62
2018-07-05T19:26:06.800Z,20.57
2018-07-05T19:28:52.941Z,20.42
2018-07-05T19:31:39.046Z,20.43
2018-07-05T19:34:25.488Z,20.45
2018-07-05T19:37:05.626Z,20.40
2018-07-05T19:39:51.811Z,20.36
2018-07-05T19:42:38.110Z,20.32
2018-07-05T19:45:24.323Z,20.27
2018-07-05T19:48:10.517Z,20.15
2018-07-05T19:50:56.705Z,20.14
2018-07-05T19:53:42.957Z,20.15
2018-07-05T19:56:29.200Z,20.17
2018-07-05T19:59:09.469Z,20.18
2018-07-05T20:01:55.765Z,20.12
2018-07-05T20:04:41.949Z,20.09
2018-07-05T20:07:28.221Z,20.08
2018-07-05T20:10:14.372Z,20.08
2018-07-05T20:13:00.593Z,19.99
2018-07-05T20:15:46.793Z,19.99
2018-07-05T20:18:32.891Z,20.01
2018-07-05T20:21:19.088Z,19.99
2018-07-05T20:23:59.403Z,19.97
2018-07-05T20:26:45.791Z,19.94
2018-07-05T20:29:34.058Z,19.94
2018-07-05T20:32:20.271Z,19.93
2018-07-05T20:35:06.394Z,19.90
2018-07-05T20:37:52.592Z,19.92
2018-07-05T20:40:38.860Z,19.88
2018-07-05T20:43:25.027Z,19.83
2018-07-05T20:46:11.699Z,19.82
2018-07-05T20:48:58.112Z,19.83
2018-07-05T20:51:44.410Z,19.84
2018-07-05T20:54:30.492Z,19.83
2018-07-05T20:57:16.647Z,19.84
2018-07-05T21:00:02.892Z,19.83
2018-07-05T21:02:49.550Z,19.79
2018-07-05T21:05:35.713Z,19.73
2018-07-05T21:08:21.832Z,19.74
2018-07-05T21:11:02.128Z,19.75
2018-07-05T21:13:42.446Z,19.74
2018-07-05T21:16:29.306Z,19.75
2018-07-05T21:19:16.039Z,19.77
2018-07-05T21:22:02.062Z,19.77
2018-07-05T21:24:42.397Z,19.76
2018-07-05T21:27:29.225Z,19.77
2018-07-05T21:30:15.541Z,19.70
2018-07-05T21:33:01.723Z,19.71
2018-07-05T21:35:48.131Z,19.70
2018-07-05T21:38:28.458Z,19.67
2018-07-05T21:41:14.658Z,19.68
2018-07-05T21:44:01.333Z,19.70
2018-07-05T21:46:47.726Z,19.69
2018-07-05T21:49:34.034Z,19.69
2018-07-05T21:52:20.183Z,19.68
2018-07-05T21:55:06.307Z,19.67
2018-07-05T21:57:46.543Z,19.66
2018-07-05T22:00:32.651Z,19.65
2018-07-05T22:03:18.753Z,19.61
2018-07-05T22:05:58.996Z,19.61
2018-07-05T22:08:45.226Z,19.56
2018-07-05T22:11:31.585Z,19.56
2018-07-05T22:14:17.826Z,19.58
2018-07-05T22:17:09.232Z,19.57
2018-07-05T22:20:00.803Z,19.52
2018-07-05T22:22:52.426Z,19.47
2018-07-05T22:25:43.895Z,19.51
2018-07-05T22:28:35.438Z,19.50
2018-07-05T22:31:21.120Z,19.54
2018-07-05T22:34:07.400Z,19.50
2018-07-05T22:36:53.547Z,19.50
2018-07-05T22:39:39.794Z,19.48
2018-07-05T22:42:25.942Z,19.46
2018-07-05T22:45:12.240Z,19.44
2018-07-05T22:47:59.082Z,19.46
2018-07-05T22:50:45.861Z,19.46
2018-07-05T22:53:32.024Z,19.38
2018-07-05T22:56:18.199Z,19.29
2018-07-05T22:59:04.393Z,19.33
2018-07-05T23:01:44.697Z,19.35
2018-07-05T23:04:31.041Z,19.37
2018-07-05T23:07:17.698Z,19.38
2018-07-05T23:10:03.931Z,19.35
2018-07-05T23:12:51.067Z,19.36
2018-07-05T23:15:37.212Z,19.36
2018-07-05T23:18:23.569Z,19.27
2018-07-05T23:21:09.764Z,19.28
2018-07-05T23:23:55.904Z,19.31
2018-07-05T23:26:41.950Z,19.30
2018-07-05T23:29:28.222Z,19.30
2018-07-05T23:32:14.440Z,19.31
2018-07-05T23:35:00.681Z,19.32
2018-07-05T23:37:46.809Z,19.23
2018-07-05T23:40:33.060Z,19.22
2018-07-05T23:43:19.183Z,19.21
2018-07-05T23:46:05.292Z,19.19
2018-07-05T23:48:51.644Z,19.18
2018-07-05T23:51:37.780Z,19.17
2018-07-05T23:54:23.912Z,19.16
2018-07-05T23:57:10.241Z,19.16
2018-07-05T23:59:56.325Z,19.16
